sensor_id;sensor_type;location;lat;lon;timestamp;P1;durP1;ratioP1;P2;durP2;ratioP2
9128;SDS011;4599;50.906;6.786;2023-08-06T00:00:09;4.93;;;2.20;;
9128;SDS011;4599;50.906;6.786;2023-08-06T00:04:31;5.27;;;2.77;;
9128;SDS011;4599;50.906;6.786;2023-08-06T00:08:53;6.63;;;2.27;;
9128;SDS011;4599;50.906;6.786;2023-08-06T00:13:15;2.53;;;2.17;;
9128;SDS011;4599;50.906;6.786;2023-08-06T00:17:39;3.47;;;2.30;;
9128;SDS011;4599;50.906;6.786;2023-08-06T00:22:01;7.50;;;2.60;;
9128;SDS011;4599;50.906;6.786;2023-08-06T00:26:24;3.87;;;2.33;;
9128;SDS011;4599;50.906;6.786;2023-08-06T00:30:46;3.37;;;2.60;;
9128;SDS011;4599;50.906;6.786;2023-08-06T00:35:09;3.83;;;2.70;;
9128;SDS011;4599;50.906;6.786;2023-08-06T00:39:31;3.33;;;2.37;;
9128;SDS011;4599;50.906;6.786;2023-08-06T00:43:54;3.67;;;2.30;;
9128;SDS011;4599;50.906;6.786;2023-08-06T00:48:16;4.80;;;2.50;;
9128;SDS011;4599;50.906;6.786;2023-08-06T00:52:40;6.00;;;2.30;;
9128;SDS011;4599;50.906;6.786;2023-08-06T00:57:03;5.80;;;2.80;;
9128;SDS011;4599;50.906;6.786;2023-08-06T01:01:30;3.73;;;2.40;;
9128;SDS011;4599;50.906;6.786;2023-08-06T01:05:52;2.47;;;1.90;;
9128;SDS011;4599;50.906;6.786;2023-08-06T01:10:23;4.37;;;1.80;;
9128;SDS011;4599;50.906;6.786;2023-08-06T01:14:52;2.50;;;1.93;;
9128;SDS011;4599;50.906;6.786;2023-08-06T01:19:19;2.63;;;1.80;;
9128;SDS011;4599;50.906;6.786;2023-08-06T01:23:44;4.50;;;2.00;;
9128;SDS011;4599;50.906;6.786;2023-08-06T01:28:10;1.80;;;1.70;;
9128;SDS011;4599;50.906;6.786;2023-08-06T01:32:38;4.10;;;1.90;;
9128;SDS011;4599;50.906;6.786;2023-08-06T01:37:04;4.13;;;1.80;;
9128;SDS011;4599;50.906;6.786;2023-08-06T01:41:28;2.50;;;1.67;;
9128;SDS011;4599;50.906;6.786;2023-08-06T01:45:49;3.73;;;1.63;;
9128;SDS011;4599;50.906;6.786;2023-08-06T01:50:11;1.70;;;1.60;;
9128;SDS011;4599;50.906;6.786;2023-08-06T01:54:34;5.03;;;1.70;;
9128;SDS011;4599;50.906;6.786;2023-08-06T01:58:58;4.33;;;1.67;;
9128;SDS011;4599;50.906;6.786;2023-08-06T02:03:23;2.83;;;2.00;;
9128;SDS011;4599;50.906;6.786;2023-08-06T02:07:45;4.57;;;2.57;;
9128;SDS011;4599;50.906;6.786;2023-08-06T02:12:07;1.90;;;1.63;;
9128;SDS011;4599;50.906;6.786;2023-08-06T02:16:32;2.87;;;1.90;;
9128;SDS011;4599;50.906;6.786;2023-08-06T02:20:57;4.77;;;2.00;;
9128;SDS011;4599;50.906;6.786;2023-08-06T02:25:20;3.47;;;1.90;;
9128;SDS011;4599;50.906;6.786;2023-08-06T02:29:42;2.70;;;2.07;;
9128;SDS011;4599;50.906;6.786;2023-08-06T02:34:05;4.67;;;1.87;;
9128;SDS011;4599;50.906;6.786;2023-08-06T02:38:27;1.90;;;1.50;;
9128;SDS011;4599;50.906;6.786;2023-08-06T02:42:49;3.67;;;1.63;;
9128;SDS011;4599;50.906;6.786;2023-08-06T02:47:14;3.03;;;1.80;;
9128;SDS011;4599;50.906;6.786;2023-08-06T02:51:37;2.60;;;1.60;;
9128;SDS011;4599;50.906;6.786;2023-08-06T02:55:59;2.00;;;1.60;;
9128;SDS011;4599;50.906;6.786;2023-08-06T03:00:22;4.67;;;1.80;;
9128;SDS011;4599;50.906;6.786;2023-08-06T03:04:44;4.80;;;2.13;;
9128;SDS011;4599;50.906;6.786;2023-08-06T03:09:07;2.70;;;1.77;;
9128;SDS011;4599;50.906;6.786;2023-08-06T03:13:31;2.60;;;1.60;;
9128;SDS011;4599;50.906;6.786;2023-08-06T03:17:55;3.90;;;1.60;;
9128;SDS011;4599;50.906;6.786;2023-08-06T03:22:17;4.40;;;2.10;;
9128;SDS011;4599;50.906;6.786;2023-08-06T03:26:40;3.03;;;1.70;;
9128;SDS011;4599;50.906;6.786;2023-08-06T03:31:02;3.03;;;1.70;;
9128;SDS011;4599;50.906;6.786;2023-08-06T03:35:25;5.23;;;1.90;;
9128;SDS011;4599;50.906;6.786;2023-08-06T03:39:47;5.50;;;2.23;;
9128;SDS011;4599;50.906;6.786;2023-08-06T03:44:10;3.40;;;2.30;;
9128;SDS011;4599;50.906;6.786;2023-08-06T03:48:32;3.13;;;1.70;;
9128;SDS011;4599;50.906;6.786;2023-08-06T03:52:54;3.20;;;1.73;;
9128;SDS011;4599;50.906;6.786;2023-08-06T03:57:16;4.33;;;2.00;;
9128;SDS011;4599;50.906;6.786;2023-08-06T04:01:40;4.77;;;2.10;;
9128;SDS011;4599;50.906;6.786;2023-08-06T04:06:02;3.23;;;2.23;;
9128;SDS011;4599;50.906;6.786;2023-08-06T04:10:24;6.37;;;2.13;;
9128;SDS011;4599;50.906;6.786;2023-08-06T04:14:46;4.33;;;2.67;;
9128;SDS011;4599;50.906;6.786;2023-08-06T04:19:09;4.10;;;2.43;;
9128;SDS011;4599;50.906;6.786;2023-08-06T04:23:31;2.97;;;2.20;;
9128;SDS011;4599;50.906;6.786;2023-08-06T04:27:53;4.83;;;2.73;;
9128;SDS011;4599;50.906;6.786;2023-08-06T04:32:15;4.77;;;2.80;;
9128;SDS011;4599;50.906;6.786;2023-08-06T04:36:39;5.53;;;3.13;;
9128;SDS011;4599;50.906;6.786;2023-08-06T04:41:01;4.33;;;3.10;;
9128;SDS011;4599;50.906;6.786;2023-08-06T04:45:23;5.57;;;3.47;;
9128;SDS011;4599;50.906;6.786;2023-08-06T04:49:45;5.00;;;3.20;;
9128;SDS011;4599;50.906;6.786;2023-08-06T04:54:09;5.20;;;3.00;;
9128;SDS011;4599;50.906;6.786;2023-08-06T04:58:31;3.47;;;3.00;;
9128;SDS011;4599;50.906;6.786;2023-08-06T05:02:53;5.27;;;3.17;;
9128;SDS011;4599;50.906;6.786;2023-08-06T05:07:15;3.87;;;2.83;;
9128;SDS011;4599;50.906;6.786;2023-08-06T05:11:38;3.27;;;2.90;;
9128;SDS011;4599;50.906;6.786;2023-08-06T05:16:00;4.03;;;2.90;;
9128;SDS011;4599;50.906;6.786;2023-08-06T05:20:22;4.07;;;3.00;;
9128;SDS011;4599;50.906;6.786;2023-08-06T05:24:43;4.43;;;2.93;;
9128;SDS011;4599;50.906;6.786;2023-08-06T05:29:07;5.23;;;3.20;;
9128;SDS011;4599;50.906;6.786;2023-08-06T05:33:29;4.60;;;3.30;;
9128;SDS011;4599;50.906;6.786;2023-08-06T05:37:51;10.23;;;2.93;;
9128;SDS011;4599;50.906;6.786;2023-08-06T05:42:13;5.63;;;2.17;;
9128;SDS011;4599;50.906;6.786;2023-08-06T05:46:36;4.67;;;1.80;;
9128;SDS011;4599;50.906;6.786;2023-08-06T05:51:00;3.37;;;1.90;;
9128;SDS011;4599;50.906;6.786;2023-08-06T05:55:22;2.93;;;1.93;;
9128;SDS011;4599;50.906;6.786;2023-08-06T05:59:43;1.97;;;1.70;;
9128;SDS011;4599;50.906;6.786;2023-08-06T06:04:07;2.20;;;2.00;;
9128;SDS011;4599;50.906;6.786;2023-08-06T06:08:29;3.67;;;1.90;;
9128;SDS011;4599;50.906;6.786;2023-08-06T06:12:50;2.37;;;1.50;;
9128;SDS011;4599;50.906;6.786;2023-08-06T06:17:12;2.20;;;1.50;;
9128;SDS011;4599;50.906;6.786;2023-08-06T06:21:35;2.00;;;1.50;;
9128;SDS011;4599;50.906;6.786;2023-08-06T06:25:57;2.53;;;1.40;;
9128;SDS011;4599;50.906;6.786;2023-08-06T06:30:19;2.97;;;1.30;;
9128;SDS011;4599;50.906;6.786;2023-08-06T06:34:41;3.63;;;1.43;;
9128;SDS011;4599;50.906;6.786;2023-08-06T06:39:05;4.17;;;1.37;;
9128;SDS011;4599;50.906;6.786;2023-08-06T06:43:27;1.47;;;1.37;;
9128;SDS011;4599;50.906;6.786;2023-08-06T06:47:49;2.73;;;1.70;;
9128;SDS011;4599;50.906;6.786;2023-08-06T06:52:11;3.10;;;1.57;;
9128;SDS011;4599;50.906;6.786;2023-08-06T06:56:34;2.73;;;1.60;;
9128;SDS011;4599;50.906;6.786;2023-08-06T07:00:56;2.50;;;1.60;;
9128;SDS011;4599;50.906;6.786;2023-08-06T07:05:19;2.00;;;1.40;;
9128;SDS011;4599;50.906;6.786;2023-08-06T07:09:40;2.33;;;1.30;;
9128;SDS011;4599;50.906;6.786;2023-08-06T07:14:04;3.27;;;1.40;;
9128;SDS011;4599;50.906;6.786;2023-08-06T07:18:26;3.90;;;1.57;;
9128;SDS011;4599;50.906;6.786;2023-08-06T07:22:47;1.60;;;1.50;;
9128;SDS011;4599;50.906;6.786;2023-08-06T07:27:09;4.67;;;1.70;;
9128;SDS011;4599;50.906;6.786;2023-08-06T07:31:32;1.87;;;1.30;;
9128;SDS011;4599;50.906;6.786;2023-08-06T07:35:54;3.63;;;1.50;;
9128;SDS011;4599;50.906;6.786;2023-08-06T07:40:16;2.23;;;1.63;;
9128;SDS011;4599;50.906;6.786;2023-08-06T07:44:38;2.83;;;1.60;;
9128;SDS011;4599;50.906;6.786;2023-08-06T07:49:03;1.67;;;1.53;;
9128;SDS011;4599;50.906;6.786;2023-08-06T07:53:25;2.23;;;1.63;;
9128;SDS011;4599;50.906;6.786;2023-08-06T07:57:47;2.53;;;1.40;;
9128;SDS011;4599;50.906;6.786;2023-08-06T08:02:09;4.67;;;1.80;;
9128;SDS011;4599;50.906;6.786;2023-08-06T08:06:32;2.13;;;1.40;;
9128;SDS011;4599;50.906;6.786;2023-08-06T08:10:54;1.80;;;1.60;;
9128;SDS011;4599;50.906;6.786;2023-08-06T08:15:17;2.73;;;1.67;;
9128;SDS011;4599;50.906;6.786;2023-08-06T08:19:39;1.67;;;1.40;;
9128;SDS011;4599;50.906;6.786;2023-08-06T08:24:03;3.03;;;1.80;;
9128;SDS011;4599;50.906;6.786;2023-08-06T08:28:26;1.63;;;1.53;;
9128;SDS011;4599;50.906;6.786;2023-08-06T08:32:48;3.07;;;1.67;;
9128;SDS011;4599;50.906;6.786;2023-08-06T08:37:10;1.30;;;1.20;;
9128;SDS011;4599;50.906;6.786;2023-08-06T08:41:33;1.80;;;1.00;;
9128;SDS011;4599;50.906;6.786;2023-08-06T08:45:56;0.90;;;0.90;;
9128;SDS011;4599;50.906;6.786;2023-08-06T08:50:20;1.43;;;0.80;;
9128;SDS011;4599;50.906;6.786;2023-08-06T08:54:43;0.80;;;0.80;;
9128;SDS011;4599;50.906;6.786;2023-08-06T08:59:09;1.13;;;0.80;;
9128;SDS011;4599;50.906;6.786;2023-08-06T09:03:31;1.80;;;0.70;;
9128;SDS011;4599;50.906;6.786;2023-08-06T09:07:53;0.70;;;0.70;;
9128;SDS011;4599;50.906;6.786;2023-08-06T09:12:23;1.00;;;0.90;;
9128;SDS011;4599;50.906;6.786;2023-08-06T09:16:46;0.97;;;0.97;;
9128;SDS011;4599;50.906;6.786;2023-08-06T09:21:13;1.30;;;1.00;;
9128;SDS011;4599;50.906;6.786;2023-08-06T09:25:38;1.10;;;1.00;;
9128;SDS011;4599;50.906;6.786;2023-08-06T09:30:00;2.30;;;1.10;;
9128;SDS011;4599;50.906;6.786;2023-08-06T09:34:24;1.50;;;1.40;;
9128;SDS011;4599;50.906;6.786;2023-08-06T09:38:46;2.03;;;1.70;;
9128;SDS011;4599;50.906;6.786;2023-08-06T09:43:08;3.37;;;1.80;;
9128;SDS011;4599;50.906;6.786;2023-08-06T09:47:29;1.93;;;1.60;;
9128;SDS011;4599;50.906;6.786;2023-08-06T09:51:53;1.30;;;1.20;;
9128;SDS011;4599;50.906;6.786;2023-08-06T09:56:16;2.63;;;0.80;;
9128;SDS011;4599;50.906;6.786;2023-08-06T10:00:39;3.27;;;0.63;;
9128;SDS011;4599;50.906;6.786;2023-08-06T10:05:04;0.97;;;0.77;;
9128;SDS011;4599;50.906;6.786;2023-08-06T10:09:28;2.37;;;0.60;;
9128;SDS011;4599;50.906;6.786;2023-08-06T10:13:57;1.10;;;0.80;;
9128;SDS011;4599;50.906;6.786;2023-08-06T10:18:22;1.00;;;0.90;;
9128;SDS011;4599;50.906;6.786;2023-08-06T10:22:44;1.27;;;1.10;;
9128;SDS011;4599;50.906;6.786;2023-08-06T10:27:11;4.20;;;1.67;;
9128;SDS011;4599;50.906;6.786;2023-08-06T10:36:20;2.33;;;1.67;;
9128;SDS011;4599;50.906;6.786;2023-08-06T10:40:47;4.23;;;1.90;;
9128;SDS011;4599;50.906;6.786;2023-08-06T10:45:12;2.13;;;1.50;;
9128;SDS011;4599;50.906;6.786;2023-08-06T10:49:36;5.20;;;1.70;;
9128;SDS011;4599;50.906;6.786;2023-08-06T10:53:58;3.90;;;1.53;;
9128;SDS011;4599;50.906;6.786;2023-08-06T10:58:20;3.60;;;1.70;;
9128;SDS011;4599;50.906;6.786;2023-08-06T11:02:46;2.80;;;1.80;;
9128;SDS011;4599;50.906;6.786;2023-08-06T11:07:09;7.60;;;1.67;;
9128;SDS011;4599;50.906;6.786;2023-08-06T11:11:31;5.77;;;1.80;;
9128;SDS011;4599;50.906;6.786;2023-08-06T11:15:53;5.00;;;1.80;;
9128;SDS011;4599;50.906;6.786;2023-08-06T11:20:17;3.93;;;1.80;;
9128;SDS011;4599;50.906;6.786;2023-08-06T11:24:42;4.70;;;1.40;;
9128;SDS011;4599;50.906;6.786;2023-08-06T11:29:05;3.70;;;1.60;;
9128;SDS011;4599;50.906;6.786;2023-08-06T11:33:27;3.63;;;1.40;;
9128;SDS011;4599;50.906;6.786;2023-08-06T11:37:52;2.77;;;1.23;;
9128;SDS011;4599;50.906;6.786;2023-08-06T11:42:16;5.27;;;1.70;;
9128;SDS011;4599;50.906;6.786;2023-08-06T11:46:50;3.90;;;1.40;;
9128;SDS011;4599;50.906;6.786;2023-08-06T11:51:14;5.77;;;1.33;;
9128;SDS011;4599;50.906;6.786;2023-08-06T11:55:37;4.80;;;1.67;;
9128;SDS011;4599;50.906;6.786;2023-08-06T12:00:01;2.70;;;1.13;;
9128;SDS011;4599;50.906;6.786;2023-08-06T12:04:23;5.70;;;1.47;;
9128;SDS011;4599;50.906;6.786;2023-08-06T12:08:45;3.57;;;1.30;;
9128;SDS011;4599;50.906;6.786;2023-08-06T12:13:10;6.40;;;1.30;;
9128;SDS011;4599;50.906;6.786;2023-08-06T12:17:32;3.07;;;1.20;;
9128;SDS011;4599;50.906;6.786;2023-08-06T12:21:54;3.50;;;1.60;;
9128;SDS011;4599;50.906;6.786;2023-08-06T12:26:16;3.20;;;1.40;;
9128;SDS011;4599;50.906;6.786;2023-08-06T12:30:40;4.27;;;1.40;;
9128;SDS011;4599;50.906;6.786;2023-08-06T12:35:02;9.60;;;1.87;;
9128;SDS011;4599;50.906;6.786;2023-08-06T12:39:26;3.57;;;1.27;;
9128;SDS011;4599;50.906;6.786;2023-08-06T12:43:48;6.33;;;1.47;;
9128;SDS011;4599;50.906;6.786;2023-08-06T12:48:15;4.80;;;1.53;;
9128;SDS011;4599;50.906;6.786;2023-08-06T12:52:37;2.43;;;1.20;;
9128;SDS011;4599;50.906;6.786;2023-08-06T12:57:00;2.70;;;1.30;;
9128;SDS011;4599;50.906;6.786;2023-08-06T13:01:22;4.40;;;1.53;;
9128;SDS011;4599;50.906;6.786;2023-08-06T13:05:45;4.93;;;1.50;;
9128;SDS011;4599;50.906;6.786;2023-08-06T13:10:07;7.47;;;1.67;;
9128;SDS011;4599;50.906;6.786;2023-08-06T13:14:30;3.10;;;1.40;;
9128;SDS011;4599;50.906;6.786;2023-08-06T13:18:52;1.83;;;1.60;;
9128;SDS011;4599;50.906;6.786;2023-08-06T13:23:16;4.67;;;1.60;;
9128;SDS011;4599;50.906;6.786;2023-08-06T13:27:39;3.53;;;1.50;;
9128;SDS011;4599;50.906;6.786;2023-08-06T13:32:01;4.53;;;1.83;;
9128;SDS011;4599;50.906;6.786;2023-08-06T13:36:23;5.70;;;1.67;;
9128;SDS011;4599;50.906;6.786;2023-08-06T13:50:31;3.83;;;1.77;;
9128;SDS011;4599;50.906;6.786;2023-08-06T13:54:53;4.37;;;1.50;;
9128;SDS011;4599;50.906;6.786;2023-08-06T14:04:16;3.27;;;1.20;;
9128;SDS011;4599;50.906;6.786;2023-08-06T14:08:38;4.60;;;1.20;;
9128;SDS011;4599;50.906;6.786;2023-08-06T14:13:00;3.70;;;1.10;;
9128;SDS011;4599;50.906;6.786;2023-08-06T14:17:32;3.60;;;1.10;;
9128;SDS011;4599;50.906;6.786;2023-08-06T14:21:55;2.93;;;1.20;;
9128;SDS011;4599;50.906;6.786;2023-08-06T14:26:18;3.27;;;1.13;;
9128;SDS011;4599;50.906;6.786;2023-08-06T14:30:42;6.37;;;1.10;;
9128;SDS011;4599;50.906;6.786;2023-08-06T14:35:04;3.23;;;1.03;;
9128;SDS011;4599;50.906;6.786;2023-08-06T14:39:28;3.90;;;1.23;;
9128;SDS011;4599;50.906;6.786;2023-08-06T14:43:50;2.00;;;1.10;;
9128;SDS011;4599;50.906;6.786;2023-08-06T14:48:12;2.77;;;1.10;;
9128;SDS011;4599;50.906;6.786;2023-08-06T14:52:34;2.03;;;0.90;;
9128;SDS011;4599;50.906;6.786;2023-08-06T14:56:57;1.70;;;0.80;;
9128;SDS011;4599;50.906;6.786;2023-08-06T15:01:19;2.47;;;0.70;;
9128;SDS011;4599;50.906;6.786;2023-08-06T15:05:43;2.43;;;0.80;;
9128;SDS011;4599;50.906;6.786;2023-08-06T15:10:05;2.00;;;0.83;;
9128;SDS011;4599;50.906;6.786;2023-08-06T15:14:48;1.40;;;0.60;;
9128;SDS011;4599;50.906;6.786;2023-08-06T15:19:11;0.53;;;0.53;;
9128;SDS011;4599;50.906;6.786;2023-08-06T15:23:35;1.50;;;0.60;;
9128;SDS011;4599;50.906;6.786;2023-08-06T15:27:57;2.20;;;0.70;;
9128;SDS011;4599;50.906;6.786;2023-08-06T15:32:21;1.07;;;0.60;;
9128;SDS011;4599;50.906;6.786;2023-08-06T15:36:43;3.87;;;1.00;;
9128;SDS011;4599;50.906;6.786;2023-08-06T15:41:04;1.70;;;0.67;;
9128;SDS011;4599;50.906;6.786;2023-08-06T15:45:30;2.77;;;0.93;;
9128;SDS011;4599;50.906;6.786;2023-08-06T15:49:55;1.30;;;0.80;;
9128;SDS011;4599;50.906;6.786;2023-08-06T15:54:17;2.63;;;1.00;;
9128;SDS011;4599;50.906;6.786;2023-08-06T15:58:40;2.63;;;1.00;;
9128;SDS011;4599;50.906;6.786;2023-08-06T16:03:02;4.87;;;1.10;;
9128;SDS011;4599;50.906;6.786;2023-08-06T16:07:26;2.90;;;1.00;;
9128;SDS011;4599;50.906;6.786;2023-08-06T16:11:49;3.40;;;1.10;;
9128;SDS011;4599;50.906;6.786;2023-08-06T16:16:12;2.13;;;1.10;;
9128;SDS011;4599;50.906;6.786;2023-08-06T16:20:34;3.33;;;1.20;;
9128;SDS011;4599;50.906;6.786;2023-08-06T16:24:57;5.27;;;1.40;;
9128;SDS011;4599;50.906;6.786;2023-08-06T16:29:19;8.30;;;1.10;;
9128;SDS011;4599;50.906;6.786;2023-08-06T16:33:43;1.37;;;0.97;;
9128;SDS011;4599;50.906;6.786;2023-08-06T16:38:05;3.03;;;1.20;;
9128;SDS011;4599;50.906;6.786;2023-08-06T16:42:30;3.67;;;1.57;;
9128;SDS011;4599;50.906;6.786;2023-08-06T16:46:52;3.67;;;1.33;;
9128;SDS011;4599;50.906;6.786;2023-08-06T16:51:14;4.77;;;1.40;;
9128;SDS011;4599;50.906;6.786;2023-08-06T16:55:36;5.07;;;1.47;;
9128;SDS011;4599;50.906;6.786;2023-08-06T17:00:03;2.87;;;1.37;;
9128;SDS011;4599;50.906;6.786;2023-08-06T17:04:26;6.30;;;1.43;;
9128;SDS011;4599;50.906;6.786;2023-08-06T17:08:49;5.27;;;1.20;;
9128;SDS011;4599;50.906;6.786;2023-08-06T17:13:10;5.43;;;1.20;;
9128;SDS011;4599;50.906;6.786;2023-08-06T17:17:43;4.97;;;1.10;;
9128;SDS011;4599;50.906;6.786;2023-08-06T17:22:05;2.00;;;1.20;;
9128;SDS011;4599;50.906;6.786;2023-08-06T17:26:27;2.30;;;1.20;;
9128;SDS011;4599;50.906;6.786;2023-08-06T17:30:49;3.43;;;1.30;;
9128;SDS011;4599;50.906;6.786;2023-08-06T17:35:16;3.27;;;1.30;;
9128;SDS011;4599;50.906;6.786;2023-08-06T17:39:39;1.47;;;1.30;;
9128;SDS011;4599;50.906;6.786;2023-08-06T17:44:02;2.60;;;1.10;;
9128;SDS011;4599;50.906;6.786;2023-08-06T17:48:24;2.20;;;1.10;;
9128;SDS011;4599;50.906;6.786;2023-08-06T17:52:47;2.87;;;1.23;;
9128;SDS011;4599;50.906;6.786;2023-08-06T17:57:09;1.67;;;1.07;;
9128;SDS011;4599;50.906;6.786;2023-08-06T18:01:31;3.50;;;1.20;;
9128;SDS011;4599;50.906;6.786;2023-08-06T18:05:54;2.10;;;1.17;;
9128;SDS011;4599;50.906;6.786;2023-08-06T18:10:18;1.67;;;1.17;;
9128;SDS011;4599;50.906;6.786;2023-08-06T18:14:40;2.13;;;0.90;;
9128;SDS011;4599;50.906;6.786;2023-08-06T18:19:03;3.27;;;1.03;;
9128;SDS011;4599;50.906;6.786;2023-08-06T18:23:24;3.63;;;1.20;;
9128;SDS011;4599;50.906;6.786;2023-08-06T18:27:48;5.73;;;1.20;;
9128;SDS011;4599;50.906;6.786;2023-08-06T18:32:10;3.67;;;1.00;;
9128;SDS011;4599;50.906;6.786;2023-08-06T18:36:33;2.17;;;1.03;;
9128;SDS011;4599;50.906;6.786;2023-08-06T18:40:56;0.90;;;0.70;;
9128;SDS011;4599;50.906;6.786;2023-08-06T18:45:20;3.23;;;1.00;;
9128;SDS011;4599;50.906;6.786;2023-08-06T18:49:41;3.20;;;1.30;;
9128;SDS011;4599;50.906;6.786;2023-08-06T18:54:05;4.33;;;1.57;;
9128;SDS011;4599;50.906;6.786;2023-08-06T18:58:27;3.00;;;1.30;;
9128;SDS011;4599;50.906;6.786;2023-08-06T19:02:50;2.90;;;1.17;;
9128;SDS011;4599;50.906;6.786;2023-08-06T19:07:13;6.73;;;1.37;;
9128;SDS011;4599;50.906;6.786;2023-08-06T19:11:35;3.90;;;1.30;;
9128;SDS011;4599;50.906;6.786;2023-08-06T19:15:57;5.70;;;1.23;;
9128;SDS011;4599;50.906;6.786;2023-08-06T19:20:23;4.73;;;1.30;;
9128;SDS011;4599;50.906;6.786;2023-08-06T19:24:45;4.13;;;1.63;;
9128;SDS011;4599;50.906;6.786;2023-08-06T19:29:07;5.30;;;1.43;;
9128;SDS011;4599;50.906;6.786;2023-08-06T19:33:29;4.57;;;1.50;;
9128;SDS011;4599;50.906;6.786;2023-08-06T19:37:55;9.33;;;2.37;;
9128;SDS011;4599;50.906;6.786;2023-08-06T19:42:17;10.33;;;2.40;;
9128;SDS011;4599;50.906;6.786;2023-08-06T19:46:39;11.50;;;2.10;;
9128;SDS011;4599;50.906;6.786;2023-08-06T19:51:02;6.70;;;1.90;;
9128;SDS011;4599;50.906;6.786;2023-08-06T19:55:25;10.37;;;1.80;;
9128;SDS011;4599;50.906;6.786;2023-08-06T19:59:47;6.53;;;2.10;;
9128;SDS011;4599;50.906;6.786;2023-08-06T20:04:10;5.10;;;2.00;;
9128;SDS011;4599;50.906;6.786;2023-08-06T20:08:33;5.77;;;1.93;;
9128;SDS011;4599;50.906;6.786;2023-08-06T20:12:57;7.70;;;1.97;;
9128;SDS011;4599;50.906;6.786;2023-08-06T20:17:19;6.60;;;1.80;;
9128;SDS011;4599;50.906;6.786;2023-08-06T20:21:41;5.67;;;1.50;;
9128;SDS011;4599;50.906;6.786;2023-08-06T20:26:03;8.83;;;1.93;;
9128;SDS011;4599;50.906;6.786;2023-08-06T20:30:27;11.53;;;2.10;;
9128;SDS011;4599;50.906;6.786;2023-08-06T20:34:50;11.20;;;3.03;;
9128;SDS011;4599;50.906;6.786;2023-08-06T20:39:13;5.60;;;2.00;;
9128;SDS011;4599;50.906;6.786;2023-08-06T20:43:35;6.27;;;1.80;;
9128;SDS011;4599;50.906;6.786;2023-08-06T20:47:58;6.07;;;1.77;;
9128;SDS011;4599;50.906;6.786;2023-08-06T20:52:20;9.07;;;2.20;;
9128;SDS011;4599;50.906;6.786;2023-08-06T20:56:42;7.37;;;2.27;;
9128;SDS011;4599;50.906;6.786;2023-08-06T21:01:04;10.63;;;2.10;;
9128;SDS011;4599;50.906;6.786;2023-08-06T21:05:28;5.07;;;1.93;;
9128;SDS011;4599;50.906;6.786;2023-08-06T21:09:50;7.27;;;1.80;;
9128;SDS011;4599;50.906;6.786;2023-08-06T21:14:11;9.10;;;2.30;;
9128;SDS011;4599;50.906;6.786;2023-08-06T21:18:34;8.13;;;2.57;;
9128;SDS011;4599;50.906;6.786;2023-08-06T21:22:57;9.87;;;2.10;;
9128;SDS011;4599;50.906;6.786;2023-08-06T21:27:19;8.13;;;2.47;;
9128;SDS011;4599;50.906;6.786;2023-08-06T21:31:41;15.63;;;2.97;;
9128;SDS011;4599;50.906;6.786;2023-08-06T21:36:03;9.47;;;1.93;;
9128;SDS011;4599;50.906;6.786;2023-08-06T21:40:27;5.57;;;1.97;;
9128;SDS011;4599;50.906;6.786;2023-08-06T21:44:49;7.63;;;2.10;;
9128;SDS011;4599;50.906;6.786;2023-08-06T21:49:11;4.60;;;1.73;;
9128;SDS011;4599;50.906;6.786;2023-08-06T21:53:33;4.87;;;1.70;;
9128;SDS011;4599;50.906;6.786;2023-08-06T21:57:57;8.80;;;1.77;;
9128;SDS011;4599;50.906;6.786;2023-08-06T22:02:19;7.40;;;1.87;;
9128;SDS011;4599;50.906;6.786;2023-08-06T22:06:41;12.00;;;2.37;;
9128;SDS011;4599;50.906;6.786;2023-08-06T22:11:03;10.13;;;2.00;;
9128;SDS011;4599;50.906;6.786;2023-08-06T22:15:27;7.87;;;2.00;;
9128;SDS011;4599;50.906;6.786;2023-08-06T22:19:49;10.97;;;2.20;;
9128;SDS011;4599;50.906;6.786;2023-08-06T22:24:11;11.37;;;1.90;;
9128;SDS011;4599;50.906;6.786;2023-08-06T22:28:32;8.10;;;2.40;;
9128;SDS011;4599;50.906;6.786;2023-08-06T22:32:57;10.07;;;2.80;;
9128;SDS011;4599;50.906;6.786;2023-08-06T22:37:19;6.30;;;2.10;;
9128;SDS011;4599;50.906;6.786;2023-08-06T22:41:41;13.50;;;2.27;;
9128;SDS011;4599;50.906;6.786;2023-08-06T22:46:03;9.20;;;2.40;;
9128;SDS011;4599;50.906;6.786;2023-08-06T22:50:26;13.80;;;2.30;;
9128;SDS011;4599;50.906;6.786;2023-08-06T22:54:48;8.40;;;2.40;;
9128;SDS011;4599;50.906;6.786;2023-08-06T22:59:30;10.97;;;2.53;;
9128;SDS011;4599;50.906;6.786;2023-08-06T23:03:52;11.40;;;2.60;;
9128;SDS011;4599;50.906;6.786;2023-08-06T23:08:16;11.67;;;3.27;;
9128;SDS011;4599;50.906;6.786;2023-08-06T23:12:38;13.70;;;2.67;;
9128;SDS011;4599;50.906;6.786;2023-08-06T23:17:02;12.63;;;2.73;;
9128;SDS011;4599;50.906;6.786;2023-08-06T23:21:24;9.70;;;2.70;;
9128;SDS011;4599;50.906;6.786;2023-08-06T23:25:48;14.10;;;2.77;;
9128;SDS011;4599;50.906;6.786;2023-08-06T23:30:10;10.70;;;2.60;;
9128;SDS011;4599;50.906;6.786;2023-08-06T23:34:33;11.77;;;3.00;;
9128;SDS011;4599;50.906;6.786;2023-08-06T23:39:12;11.67;;;3.20;;
9128;SDS011;4599;50.906;6.786;2023-08-06T23:43:35;10.93;;;2.70;;
9128;SDS011;4599;50.906;6.786;2023-08-06T23:47:57;12.57;;;2.90;;
9128;SDS011;4599;50.906;6.786;2023-08-06T23:52:19;12.53;;;2.70;;
9128;SDS011;4599;50.906;6.786;2023-08-06T23:56:41;12.23;;;3.03;;
